sensor_id;sensor_type;location;lat;lon;timestamp;pressure;altitude;pressure_sealevel;temperature;humidity
46722;BME280;32455;43.430;23.136;2024-02-16T00:02:18;98908.94;;;0.15;100.00
46722;BME280;32455;43.430;23.136;2024-02-16T00:05:04;98902.94;;;-0.16;100.00
46722;BME280;32455;43.430;23.136;2024-02-16T00:07:51;98901.44;;;0.01;100.00
46722;BME280;32455;43.430;23.136;2024-02-16T00:10:36;98911.16;;;0.01;100.00
46722;BME280;32455;43.430;23.136;2024-02-16T00:13:22;98907.69;;;0.10;100.00
46722;BME280;32455;43.430;23.136;2024-02-16T00:16:07;98912.56;;;0.24;100.00
46722;BME280;32455;43.430;23.136;2024-02-16T00:18:53;98910.91;;;0.23;100.00
46722;BME280;32455;43.430;23.136;2024-02-16T00:21:38;98908.41;;;0.31;100.00
46722;BME280;32455;43.430;23.136;2024-02-16T00:24:26;98912.13;;;0.29;100.00
46722;BME280;32455;43.430;23.136;2024-02-16T00:27:12;98918.13;;;0.31;100.00
46722;BME280;32455;43.430;23.136;2024-02-16T00:29:59;98915.88;;;0.07;100.00
46722;BME280;32455;43.430;23.136;2024-02-16T00:32:44;98912.56;;;0.05;100.00
46722;BME280;32455;43.430;23.136;2024-02-16T00:35:30;98911.69;;;-0.06;100.00
46722;BME280;32455;43.430;23.136;2024-02-16T00:38:18;98920.59;;;0.03;100.00
46722;BME280;32455;43.430;23.136;2024-02-16T00:41:03;98908.47;;;-0.19;100.00
46722;BME280;32455;43.430;23.136;2024-02-16T00:43:50;98911.97;;;-0.09;100.00
46722;BME280;32455;43.430;23.136;2024-02-16T00:46:38;98906.00;;;-0.01;100.00
46722;BME280;32455;43.430;23.136;2024-02-16T00:49:23;98902.22;;;-0.18;100.00
46722;BME280;32455;43.430;23.136;2024-02-16T00:52:08;98899.00;;;-0.21;100.00
46722;BME280;32455;43.430;23.136;2024-02-16T00:54:55;98904.19;;;-0.10;100.00
46722;BME280;32455;43.430;23.136;2024-02-16T00:57:41;98900.59;;;0.01;100.00
46722;BME280;32455;43.430;23.136;2024-02-16T01:00:26;98907.81;;;-0.02;100.00
46722;BME280;32455;43.430;23.136;2024-02-16T01:03:11;98902.78;;;-0.14;100.00
46722;BME280;32455;43.430;23.136;2024-02-16T01:05:57;98895.84;;;-0.15;100.00
46722;BME280;32455;43.430;23.136;2024-02-16T01:08:43;98890.25;;;-0.22;100.00
46722;BME280;32455;43.430;23.136;2024-02-16T01:11:29;98889.31;;;-0.21;100.00
46722;BME280;32455;43.430;23.136;2024-02-16T01:14:14;98891.69;;;-0.08;100.00
46722;BME280;32455;43.430;23.136;2024-02-16T01:17:00;98893.88;;;-0.13;100.00
46722;BME280;32455;43.430;23.136;2024-02-16T01:19:45;98885.97;;;-0.13;100.00
46722;BME280;32455;43.430;23.136;2024-02-16T01:22:32;98883.72;;;-0.18;100.00
46722;BME280;32455;43.430;23.136;2024-02-16T01:25:17;98873.00;;;-0.26;100.00
46722;BME280;32455;43.430;23.136;2024-02-16T01:28:03;98873.97;;;-0.37;100.00
46722;BME280;32455;43.430;23.136;2024-02-16T01:30:49;98879.09;;;-0.45;100.00
46722;BME280;32455;43.430;23.136;2024-02-16T01:33:35;98863.81;;;-0.51;100.00
46722;BME280;32455;43.430;23.136;2024-02-16T01:36:21;98867.97;;;-0.48;100.00
46722;BME280;32455;43.430;23.136;2024-02-16T01:39:06;98865.19;;;-0.57;100.00
46722;BME280;32455;43.430;23.136;2024-02-16T01:41:52;98858.78;;;-0.64;100.00
46722;BME280;32455;43.430;23.136;2024-02-16T01:44:37;98859.47;;;-0.62;100.00
46722;BME280;32455;43.430;23.136;2024-02-16T01:47:23;98860.47;;;-0.53;100.00
46722;BME280;32455;43.430;23.136;2024-02-16T01:50:08;98863.41;;;-0.37;100.00
46722;BME280;32455;43.430;23.136;2024-02-16T01:52:54;98859.00;;;-0.17;100.00
46722;BME280;32455;43.430;23.136;2024-02-16T01:55:40;98860.81;;;-0.08;100.00
46722;BME280;32455;43.430;23.136;2024-02-16T01:58:25;98868.31;;;0.16;100.00
46722;BME280;32455;43.430;23.136;2024-02-16T02:01:11;98863.06;;;0.26;100.00
46722;BME280;32455;43.430;23.136;2024-02-16T02:03:57;98860.41;;;0.26;100.00
46722;BME280;32455;43.430;23.136;2024-02-16T02:06:42;98853.81;;;0.49;100.00
46722;BME280;32455;43.430;23.136;2024-02-16T02:09:27;98860.47;;;0.63;100.00
46722;BME280;32455;43.430;23.136;2024-02-16T02:12:12;98855.59;;;0.78;100.00
46722;BME280;32455;43.430;23.136;2024-02-16T02:14:57;98856.00;;;0.73;100.00
46722;BME280;32455;43.430;23.136;2024-02-16T02:17:45;98858.22;;;0.78;100.00
46722;BME280;32455;43.430;23.136;2024-02-16T02:20:30;98852.22;;;0.76;100.00
46722;BME280;32455;43.430;23.136;2024-02-16T02:23:16;98853.38;;;0.73;100.00
46722;BME280;32455;43.430;23.136;2024-02-16T02:26:01;98854.09;;;0.56;100.00
46722;BME280;32455;43.430;23.136;2024-02-16T02:28:46;98852.31;;;0.37;100.00
46722;BME280;32455;43.430;23.136;2024-02-16T02:31:31;98847.97;;;0.56;100.00
46722;BME280;32455;43.430;23.136;2024-02-16T02:34:17;98848.03;;;0.83;100.00
46722;BME280;32455;43.430;23.136;2024-02-16T02:37:02;98845.50;;;1.29;100.00
46722;BME280;32455;43.430;23.136;2024-02-16T02:39:48;98851.97;;;1.62;98.11
46722;BME280;32455;43.430;23.136;2024-02-16T02:42:35;98854.28;;;1.74;97.22
46722;BME280;32455;43.430;23.136;2024-02-16T02:45:20;98859.44;;;1.94;95.88
46722;BME280;32455;43.430;23.136;2024-02-16T02:48:06;98867.47;;;2.02;94.19
46722;BME280;32455;43.430;23.136;2024-02-16T02:50:51;98864.44;;;1.97;95.07
46722;BME280;32455;43.430;23.136;2024-02-16T02:53:37;98867.84;;;1.89;95.01
46722;BME280;32455;43.430;23.136;2024-02-16T02:56:22;98869.19;;;1.75;95.27
46722;BME280;32455;43.430;23.136;2024-02-16T02:59:07;98868.56;;;1.64;95.54
46722;BME280;32455;43.430;23.136;2024-02-16T03:01:54;98871.38;;;1.35;96.56
46722;BME280;32455;43.430;23.136;2024-02-16T03:04:39;98869.28;;;1.38;97.07
46722;BME280;32455;43.430;23.136;2024-02-16T03:07:25;98868.69;;;1.17;97.52
46722;BME280;32455;43.430;23.136;2024-02-16T03:10:10;98873.38;;;1.23;98.22
46722;BME280;32455;43.430;23.136;2024-02-16T03:12:55;98871.59;;;1.14;98.41
46722;BME280;32455;43.430;23.136;2024-02-16T03:15:41;98868.72;;;1.07;98.51
46722;BME280;32455;43.430;23.136;2024-02-16T03:18:30;98873.13;;;1.16;97.93
46722;BME280;32455;43.430;23.136;2024-02-16T03:21:15;98868.53;;;1.18;97.38
46722;BME280;32455;43.430;23.136;2024-02-16T03:24:04;98872.88;;;1.10;98.20
46722;BME280;32455;43.430;23.136;2024-02-16T03:26:49;98865.09;;;0.98;98.64
46722;BME280;32455;43.430;23.136;2024-02-16T03:29:34;98868.44;;;1.00;99.07
46722;BME280;32455;43.430;23.136;2024-02-16T03:32:20;98871.03;;;0.83;98.58
46722;BME280;32455;43.430;23.136;2024-02-16T03:35:06;98875.66;;;0.61;100.00
46722;BME280;32455;43.430;23.136;2024-02-16T03:37:51;98870.63;;;0.68;100.00
46722;BME280;32455;43.430;23.136;2024-02-16T03:40:37;98869.84;;;0.48;100.00
46722;BME280;32455;43.430;23.136;2024-02-16T03:43:22;98865.44;;;0.86;100.00
46722;BME280;32455;43.430;23.136;2024-02-16T03:46:08;98871.31;;;1.44;98.54
46722;BME280;32455;43.430;23.136;2024-02-16T03:48:53;98866.53;;;1.75;95.48
46722;BME280;32455;43.430;23.136;2024-02-16T03:51:38;98865.19;;;1.71;95.04
46722;BME280;32455;43.430;23.136;2024-02-16T03:54:23;98870.78;;;1.68;94.36
46722;BME280;32455;43.430;23.136;2024-02-16T03:57:09;98861.94;;;1.78;94.14
46722;BME280;32455;43.430;23.136;2024-02-16T03:59:57;98868.31;;;1.57;94.30
46722;BME280;32455;43.430;23.136;2024-02-16T04:02:42;98865.00;;;1.55;94.85
46722;BME280;32455;43.430;23.136;2024-02-16T04:05:28;98870.44;;;1.26;96.07
46722;BME280;32455;43.430;23.136;2024-02-16T04:08:18;98870.81;;;1.04;97.09
46722;BME280;32455;43.430;23.136;2024-02-16T04:11:04;98872.66;;;0.93;97.56
46722;BME280;32455;43.430;23.136;2024-02-16T04:13:49;98883.38;;;0.92;99.01
46722;BME280;32455;43.430;23.136;2024-02-16T04:16:34;98872.97;;;1.18;98.25
46722;BME280;32455;43.430;23.136;2024-02-16T04:19:18;98876.84;;;1.23;97.02
46722;BME280;32455;43.430;23.136;2024-02-16T04:22:04;98880.19;;;0.88;98.12
46722;BME280;32455;43.430;23.136;2024-02-16T04:24:49;98878.91;;;0.92;98.45
46722;BME280;32455;43.430;23.136;2024-02-16T04:27:35;98876.13;;;0.94;98.47
46722;BME280;32455;43.430;23.136;2024-02-16T04:30:21;98875.59;;;0.81;99.06
46722;BME280;32455;43.430;23.136;2024-02-16T04:33:06;98886.91;;;0.73;99.41
46722;BME280;32455;43.430;23.136;2024-02-16T04:35:51;98880.00;;;0.43;100.00
46722;BME280;32455;43.430;23.136;2024-02-16T04:38:37;98885.16;;;0.35;100.00
46722;BME280;32455;43.430;23.136;2024-02-16T04:41:22;98889.75;;;0.52;100.00
46722;BME280;32455;43.430;23.136;2024-02-16T04:44:07;98893.63;;;0.38;100.00
46722;BME280;32455;43.430;23.136;2024-02-16T04:46:53;98892.50;;;0.50;100.00
46722;BME280;32455;43.430;23.136;2024-02-16T04:49:39;98896.94;;;0.60;100.00
46722;BME280;32455;43.430;23.136;2024-02-16T04:52:24;98896.44;;;0.27;100.00
46722;BME280;32455;43.430;23.136;2024-02-16T04:55:09;98897.69;;;0.23;100.00
46722;BME280;32455;43.430;23.136;2024-02-16T04:57:55;98899.19;;;0.25;100.00
46722;BME280;32455;43.430;23.136;2024-02-16T05:00:40;98903.94;;;0.03;100.00
46722;BME280;32455;43.430;23.136;2024-02-16T05:03:25;98904.59;;;-0.05;100.00
46722;BME280;32455;43.430;23.136;2024-02-16T05:06:11;98908.50;;;-0.09;100.00
46722;BME280;32455;43.430;23.136;2024-02-16T05:08:59;98908.66;;;0.09;100.00
46722;BME280;32455;43.430;23.136;2024-02-16T05:11:45;98913.50;;;-0.26;100.00
46722;BME280;32455;43.430;23.136;2024-02-16T05:14:30;98914.31;;;-0.25;100.00
46722;BME280;32455;43.430;23.136;2024-02-16T05:17:17;98916.41;;;-0.19;100.00
46722;BME280;32455;43.430;23.136;2024-02-16T05:20:03;98917.84;;;0.05;100.00
46722;BME280;32455;43.430;23.136;2024-02-16T05:22:48;98920.19;;;0.08;100.00
46722;BME280;32455;43.430;23.136;2024-02-16T05:25:34;98922.78;;;-0.21;100.00
46722;BME280;32455;43.430;23.136;2024-02-16T05:28:19;98921.13;;;-0.22;100.00
46722;BME280;32455;43.430;23.136;2024-02-16T05:31:15;98912.94;;;-0.10;100.00
46722;BME280;32455;43.430;23.136;2024-02-16T05:34:02;98920.84;;;-0.19;100.00
46722;BME280;32455;43.430;23.136;2024-02-16T05:36:47;98927.06;;;-0.30;100.00
46722;BME280;32455;43.430;23.136;2024-02-16T05:39:35;98922.59;;;-0.49;100.00
46722;BME280;32455;43.430;23.136;2024-02-16T05:42:28;98921.38;;;-0.35;100.00
46722;BME280;32455;43.430;23.136;2024-02-16T05:45:17;98919.44;;;-0.33;100.00
46722;BME280;32455;43.430;23.136;2024-02-16T05:48:03;98929.19;;;-0.24;100.00
46722;BME280;32455;43.430;23.136;2024-02-16T05:50:48;98927.38;;;-0.23;100.00
46722;BME280;32455;43.430;23.136;2024-02-16T05:53:34;98928.63;;;-0.28;100.00
46722;BME280;32455;43.430;23.136;2024-02-16T05:56:19;98932.25;;;-0.09;100.00
46722;BME280;32455;43.430;23.136;2024-02-16T05:59:04;98932.97;;;0.03;100.00
46722;BME280;32455;43.430;23.136;2024-02-16T06:01:50;98941.63;;;0.05;100.00
46722;BME280;32455;43.430;23.136;2024-02-16T06:04:36;98938.69;;;0.08;100.00
46722;BME280;32455;43.430;23.136;2024-02-16T06:07:22;98937.59;;;0.10;100.00
46722;BME280;32455;43.430;23.136;2024-02-16T06:10:07;98939.41;;;0.00;100.00
46722;BME280;32455;43.430;23.136;2024-02-16T06:12:55;98942.97;;;-0.11;100.00
46722;BME280;32455;43.430;23.136;2024-02-16T06:15:40;98943.69;;;0.01;100.00
46722;BME280;32455;43.430;23.136;2024-02-16T06:18:25;98948.84;;;0.03;100.00
46722;BME280;32455;43.430;23.136;2024-02-16T06:21:14;98951.22;;;0.15;100.00
46722;BME280;32455;43.430;23.136;2024-02-16T06:24:01;98948.34;;;0.47;100.00
46722;BME280;32455;43.430;23.136;2024-02-16T06:26:46;98953.06;;;0.44;100.00
46722;BME280;32455;43.430;23.136;2024-02-16T06:29:31;98950.53;;;0.71;100.00
46722;BME280;32455;43.430;23.136;2024-02-16T06:32:17;98950.84;;;1.15;100.00
46722;BME280;32455;43.430;23.136;2024-02-16T06:35:02;98953.09;;;1.10;100.00
46722;BME280;32455;43.430;23.136;2024-02-16T06:37:47;98954.59;;;1.22;100.00
46722;BME280;32455;43.430;23.136;2024-02-16T06:40:32;98956.19;;;1.80;100.00
46722;BME280;32455;43.430;23.136;2024-02-16T06:43:17;98954.47;;;1.89;100.00
46722;BME280;32455;43.430;23.136;2024-02-16T06:46:03;98951.75;;;1.98;100.00
46722;BME280;32455;43.430;23.136;2024-02-16T06:48:48;98953.91;;;2.31;100.00
46722;BME280;32455;43.430;23.136;2024-02-16T06:51:33;98950.66;;;2.55;98.95
46722;BME280;32455;43.430;23.136;2024-02-16T06:54:19;98949.47;;;3.19;99.35
46722;BME280;32455;43.430;23.136;2024-02-16T06:57:04;98950.28;;;3.45;98.27
46722;BME280;32455;43.430;23.136;2024-02-16T06:59:51;98954.13;;;3.77;95.67
46722;BME280;32455;43.430;23.136;2024-02-16T07:02:38;98957.94;;;3.83;94.60
46722;BME280;32455;43.430;23.136;2024-02-16T07:05:23;98956.31;;;3.98;94.28
46722;BME280;32455;43.430;23.136;2024-02-16T07:08:08;98957.06;;;4.16;92.74
46722;BME280;32455;43.430;23.136;2024-02-16T07:10:54;98962.25;;;4.34;90.82
46722;BME280;32455;43.430;23.136;2024-02-16T07:13:40;98964.94;;;4.50;88.59
46722;BME280;32455;43.430;23.136;2024-02-16T07:16:27;98969.13;;;4.94;86.17
46722;BME280;32455;43.430;23.136;2024-02-16T07:19:13;98980.38;;;5.53;81.08
46722;BME280;32455;43.430;23.136;2024-02-16T07:21:58;98982.16;;;5.61;79.05
46722;BME280;32455;43.430;23.136;2024-02-16T07:24:43;98979.91;;;5.89;74.77
46722;BME280;32455;43.430;23.136;2024-02-16T07:27:29;98986.91;;;6.29;70.03
46722;BME280;32455;43.430;23.136;2024-02-16T07:30:14;98993.41;;;6.35;70.71
46722;BME280;32455;43.430;23.136;2024-02-16T07:32:59;98992.06;;;6.39;69.99
46722;BME280;32455;43.430;23.136;2024-02-16T07:35:45;98991.84;;;6.48;69.96
46722;BME280;32455;43.430;23.136;2024-02-16T07:38:30;98997.38;;;6.70;69.64
46722;BME280;32455;43.430;23.136;2024-02-16T07:41:15;98998.91;;;6.64;69.00
46722;BME280;32455;43.430;23.136;2024-02-16T07:44:01;98989.94;;;6.57;69.23
46722;BME280;32455;43.430;23.136;2024-02-16T07:46:47;98986.66;;;6.93;69.14
46722;BME280;32455;43.430;23.136;2024-02-16T07:49:37;98989.34;;;7.31;66.14
46722;BME280;32455;43.430;23.136;2024-02-16T07:52:23;98996.00;;;7.35;66.49
46722;BME280;32455;43.430;23.136;2024-02-16T07:55:07;99002.19;;;7.35;65.12
46722;BME280;32455;43.430;23.136;2024-02-16T07:57:53;98996.28;;;7.02;67.82
46722;BME280;32455;43.430;23.136;2024-02-16T08:00:38;98994.13;;;7.20;67.14
46722;BME280;32455;43.430;23.136;2024-02-16T08:03:24;98996.41;;;7.46;67.61
46722;BME280;32455;43.430;23.136;2024-02-16T08:06:09;98997.78;;;7.42;68.04
46722;BME280;32455;43.430;23.136;2024-02-16T08:08:55;99002.84;;;7.37;68.03
46722;BME280;32455;43.430;23.136;2024-02-16T08:11:40;99004.06;;;7.64;67.64
46722;BME280;32455;43.430;23.136;2024-02-16T08:14:25;99005.63;;;7.59;67.66
46722;BME280;32455;43.430;23.136;2024-02-16T08:17:11;98997.06;;;7.63;67.13
46722;BME280;32455;43.430;23.136;2024-02-16T08:19:57;99005.72;;;7.95;66.64
46722;BME280;32455;43.430;23.136;2024-02-16T08:22:42;99004.59;;;8.04;63.75
46722;BME280;32455;43.430;23.136;2024-02-16T08:25:27;99005.44;;;8.04;65.67
46722;BME280;32455;43.430;23.136;2024-02-16T08:28:13;99017.91;;;7.97;64.24
46722;BME280;32455;43.430;23.136;2024-02-16T08:30:59;99012.38;;;8.14;66.24
46722;BME280;32455;43.430;23.136;2024-02-16T08:33:44;99011.88;;;8.25;64.92
46722;BME280;32455;43.430;23.136;2024-02-16T08:36:30;99014.47;;;8.33;65.82
46722;BME280;32455;43.430;23.136;2024-02-16T08:39:17;99012.53;;;8.27;64.14
46722;BME280;32455;43.430;23.136;2024-02-16T08:42:03;99019.00;;;8.18;62.71
46722;BME280;32455;43.430;23.136;2024-02-16T08:44:49;99010.59;;;8.36;63.93
46722;BME280;32455;43.430;23.136;2024-02-16T08:47:34;99018.09;;;8.40;63.61
46722;BME280;32455;43.430;23.136;2024-02-16T08:50:19;99018.53;;;8.44;63.43
46722;BME280;32455;43.430;23.136;2024-02-16T08:53:05;99020.09;;;8.53;62.46
46722;BME280;32455;43.430;23.136;2024-02-16T08:55:50;99024.06;;;8.57;64.58
46722;BME280;32455;43.430;23.136;2024-02-16T08:58:36;99021.66;;;8.18;64.48
46722;BME280;32455;43.430;23.136;2024-02-16T09:01:34;99015.41;;;8.40;63.87
46722;BME280;32455;43.430;23.136;2024-02-16T09:04:20;99020.81;;;8.47;65.35
46722;BME280;32455;43.430;23.136;2024-02-16T09:07:06;99021.47;;;8.49;63.33
46722;BME280;32455;43.430;23.136;2024-02-16T09:09:54;99020.00;;;8.83;64.03
46722;BME280;32455;43.430;23.136;2024-02-16T09:12:40;99026.47;;;8.73;62.95
46722;BME280;32455;43.430;23.136;2024-02-16T09:15:25;99026.34;;;8.82;62.90
46722;BME280;32455;43.430;23.136;2024-02-16T09:18:11;99025.19;;;8.48;64.08
46722;BME280;32455;43.430;23.136;2024-02-16T09:20:56;99024.06;;;8.42;64.65
46722;BME280;32455;43.430;23.136;2024-02-16T09:23:41;99025.06;;;8.77;64.04
46722;BME280;32455;43.430;23.136;2024-02-16T09:26:27;99027.06;;;8.90;63.28
46722;BME280;32455;43.430;23.136;2024-02-16T09:29:15;99026.91;;;9.13;63.41
46722;BME280;32455;43.430;23.136;2024-02-16T09:32:00;99030.03;;;9.17;62.54
46722;BME280;32455;43.430;23.136;2024-02-16T09:34:46;99027.78;;;8.99;62.92
46722;BME280;32455;43.430;23.136;2024-02-16T09:37:31;99021.00;;;9.24;63.47
46722;BME280;32455;43.430;23.136;2024-02-16T09:40:16;99019.34;;;9.02;62.87
46722;BME280;32455;43.430;23.136;2024-02-16T09:43:03;99015.06;;;9.29;62.85
46722;BME280;32455;43.430;23.136;2024-02-16T09:45:52;99015.59;;;9.46;59.86
46722;BME280;32455;43.430;23.136;2024-02-16T09:48:39;99012.53;;;9.49;59.17
46722;BME280;32455;43.430;23.136;2024-02-16T09:51:25;99020.97;;;9.46;58.57
46722;BME280;32455;43.430;23.136;2024-02-16T09:54:11;99020.34;;;9.44;58.82
46722;BME280;32455;43.430;23.136;2024-02-16T09:56:56;99011.84;;;9.40;59.39
46722;BME280;32455;43.430;23.136;2024-02-16T09:59:42;99009.84;;;9.49;59.44
46722;BME280;32455;43.430;23.136;2024-02-16T10:02:27;99012.44;;;9.64;58.03
46722;BME280;32455;43.430;23.136;2024-02-16T10:05:16;99004.50;;;9.49;57.48
46722;BME280;32455;43.430;23.136;2024-02-16T10:08:11;99003.72;;;9.55;57.30
46722;BME280;32455;43.430;23.136;2024-02-16T10:11:04;98999.50;;;9.74;56.60
46722;BME280;32455;43.430;23.136;2024-02-16T10:16:59;98996.84;;;9.81;55.70
46722;BME280;32455;43.430;23.136;2024-02-16T10:19:44;98995.63;;;9.83;54.34
46722;BME280;32455;43.430;23.136;2024-02-16T10:22:40;98992.41;;;9.94;54.41
46722;BME280;32455;43.430;23.136;2024-02-16T10:25:24;98985.03;;;10.10;54.37
46722;BME280;32455;43.430;23.136;2024-02-16T10:28:11;98974.41;;;10.30;53.61
46722;BME280;32455;43.430;23.136;2024-02-16T10:31:01;98978.66;;;10.17;52.89
46722;BME280;32455;43.430;23.136;2024-02-16T10:33:46;98981.53;;;10.09;52.95
46722;BME280;32455;43.430;23.136;2024-02-16T10:36:33;98988.03;;;9.87;51.33
46722;BME280;32455;43.430;23.136;2024-02-16T10:39:19;98974.38;;;9.82;51.78
46722;BME280;32455;43.430;23.136;2024-02-16T10:42:06;98967.06;;;10.10;51.76
46722;BME280;32455;43.430;23.136;2024-02-16T10:44:55;98967.00;;;9.97;51.59
46722;BME280;32455;43.430;23.136;2024-02-16T10:47:40;98962.56;;;10.17;52.03
46722;BME280;32455;43.430;23.136;2024-02-16T10:50:25;98954.72;;;10.16;51.76
46722;BME280;32455;43.430;23.136;2024-02-16T10:53:21;98958.84;;;10.18;52.48
46722;BME280;32455;43.430;23.136;2024-02-16T10:56:08;98958.66;;;10.20;53.41
46722;BME280;32455;43.430;23.136;2024-02-16T10:58:54;98952.44;;;10.19;51.70
46722;BME280;32455;43.430;23.136;2024-02-16T11:01:44;98948.72;;;10.20;53.07
46722;BME280;32455;43.430;23.136;2024-02-16T11:04:39;98953.00;;;10.08;52.39
46722;BME280;32455;43.430;23.136;2024-02-16T11:07:25;98947.78;;;10.35;52.72
46722;BME280;32455;43.430;23.136;2024-02-16T11:10:12;98949.66;;;10.41;52.15
46722;BME280;32455;43.430;23.136;2024-02-16T11:13:03;98947.69;;;10.21;52.54
46722;BME280;32455;43.430;23.136;2024-02-16T11:16:01;98935.34;;;10.27;53.10
46722;BME280;32455;43.430;23.136;2024-02-16T11:18:47;98932.66;;;10.27;52.95
46722;BME280;32455;43.430;23.136;2024-02-16T11:21:34;98924.84;;;10.39;53.58
46722;BME280;32455;43.430;23.136;2024-02-16T11:24:19;98927.97;;;10.56;53.06
46722;BME280;32455;43.430;23.136;2024-02-16T11:27:09;98922.19;;;10.45;52.52
46722;BME280;32455;43.430;23.136;2024-02-16T11:29:58;98926.50;;;10.53;52.30
46722;BME280;32455;43.430;23.136;2024-02-16T11:32:46;98928.81;;;10.56;52.39
46722;BME280;32455;43.430;23.136;2024-02-16T11:35:31;98928.00;;;10.62;51.61
46722;BME280;32455;43.430;23.136;2024-02-16T11:38:16;98926.56;;;10.66;52.36
46722;BME280;32455;43.430;23.136;2024-02-16T11:41:05;98923.47;;;10.83;51.07
46722;BME280;32455;43.430;23.136;2024-02-16T11:44:00;98921.59;;;10.70;51.76
46722;BME280;32455;43.430;23.136;2024-02-16T11:46:46;98922.63;;;10.62;51.43
46722;BME280;32455;43.430;23.136;2024-02-16T11:49:32;98917.66;;;10.66;52.04
46722;BME280;32455;43.430;23.136;2024-02-16T11:52:17;98913.53;;;10.90;51.13
46722;BME280;32455;43.430;23.136;2024-02-16T11:55:03;98905.06;;;10.99;50.62
46722;BME280;32455;43.430;23.136;2024-02-16T11:57:48;98900.94;;;10.84;51.68
46722;BME280;32455;43.430;23.136;2024-02-16T12:00:35;98895.34;;;10.98;51.61
46722;BME280;32455;43.430;23.136;2024-02-16T12:03:24;98891.22;;;11.09;50.68
46722;BME280;32455;43.430;23.136;2024-02-16T12:06:22;98896.59;;;10.76;50.97
46722;BME280;32455;43.430;23.136;2024-02-16T12:09:07;98899.50;;;10.88;51.23
46722;BME280;32455;43.430;23.136;2024-02-16T12:11:55;98889.97;;;11.05;51.17
46722;BME280;32455;43.430;23.136;2024-02-16T12:14:40;98887.47;;;11.17;51.91
46722;BME280;32455;43.430;23.136;2024-02-16T12:17:26;98893.69;;;10.91;53.36
46722;BME280;32455;43.430;23.136;2024-02-16T12:20:12;98884.56;;;11.12;52.50
46722;BME280;32455;43.430;23.136;2024-02-16T12:23:11;98882.91;;;11.17;52.03
46722;BME280;32455;43.430;23.136;2024-02-16T12:25:57;98873.81;;;11.18;51.93
46722;BME280;32455;43.430;23.136;2024-02-16T12:28:42;98881.47;;;10.95;52.04
46722;BME280;32455;43.430;23.136;2024-02-16T12:31:29;98885.19;;;10.87;52.17
46722;BME280;32455;43.430;23.136;2024-02-16T12:34:15;98879.81;;;11.00;52.88
46722;BME280;32455;43.430;23.136;2024-02-16T12:37:00;98877.75;;;11.02;52.25
46722;BME280;32455;43.430;23.136;2024-02-16T12:39:45;98874.63;;;11.12;53.53
46722;BME280;32455;43.430;23.136;2024-02-16T12:42:32;98873.63;;;11.00;51.85
46722;BME280;32455;43.430;23.136;2024-02-16T12:45:17;98880.66;;;11.08;51.21
46722;BME280;32455;43.430;23.136;2024-02-16T12:48:03;98870.72;;;11.01;52.15
46722;BME280;32455;43.430;23.136;2024-02-16T12:50:48;98876.31;;;11.00;52.07
46722;BME280;32455;43.430;23.136;2024-02-16T12:53:34;98878.59;;;10.90;53.08
46722;BME280;32455;43.430;23.136;2024-02-16T12:56:26;98860.78;;;11.15;52.70
46722;BME280;32455;43.430;23.136;2024-02-16T12:59:11;98872.75;;;11.33;51.64
46722;BME280;32455;43.430;23.136;2024-02-16T13:01:57;98873.00;;;11.11;52.80
46722;BME280;32455;43.430;23.136;2024-02-16T13:04:42;98870.53;;;10.96;53.08
46722;BME280;32455;43.430;23.136;2024-02-16T13:07:26;98870.50;;;11.16;52.28
46722;BME280;32455;43.430;23.136;2024-02-16T13:10:12;98873.19;;;11.16;52.10
46722;BME280;32455;43.430;23.136;2024-02-16T13:12:57;98864.53;;;11.01;51.72
46722;BME280;32455;43.430;23.136;2024-02-16T13:15:43;98866.53;;;11.25;52.92
46722;BME280;32455;43.430;23.136;2024-02-16T13:18:29;98859.53;;;11.11;52.55
46722;BME280;32455;43.430;23.136;2024-02-16T13:21:14;98861.84;;;11.01;51.48
46722;BME280;32455;43.430;23.136;2024-02-16T13:24:00;98854.41;;;10.96;51.92
46722;BME280;32455;43.430;23.136;2024-02-16T13:26:46;98856.03;;;11.11;51.37
46722;BME280;32455;43.430;23.136;2024-02-16T13:29:32;98854.16;;;11.04;51.30
46722;BME280;32455;43.430;23.136;2024-02-16T13:32:17;98851.84;;;11.21;51.99
46722;BME280;32455;43.430;23.136;2024-02-16T13:35:02;98862.22;;;11.31;52.79
46722;BME280;32455;43.430;23.136;2024-02-16T13:37:48;98858.53;;;10.99;52.58
46722;BME280;32455;43.430;23.136;2024-02-16T13:40:33;98856.22;;;11.16;52.11
46722;BME280;32455;43.430;23.136;2024-02-16T13:43:18;98861.22;;;10.86;52.83
46722;BME280;32455;43.430;23.136;2024-02-16T13:46:04;98848.81;;;10.91;54.71
46722;BME280;32455;43.430;23.136;2024-02-16T13:48:49;98852.53;;;10.90;53.22
46722;BME280;32455;43.430;23.136;2024-02-16T13:51:35;98859.16;;;10.88;53.23
46722;BME280;32455;43.430;23.136;2024-02-16T13:54:20;98855.84;;;11.06;53.17
46722;BME280;32455;43.430;23.136;2024-02-16T13:57:07;98845.28;;;11.11;52.47
46722;BME280;32455;43.430;23.136;2024-02-16T13:59:52;98844.03;;;11.07;52.97
46722;BME280;32455;43.430;23.136;2024-02-16T14:02:38;98852.72;;;11.09;53.77
46722;BME280;32455;43.430;23.136;2024-02-16T14:05:23;98846.31;;;10.90;56.24
46722;BME280;32455;43.430;23.136;2024-02-16T14:08:10;98852.75;;;10.89;55.82
46722;BME280;32455;43.430;23.136;2024-02-16T14:10:57;98853.59;;;10.76;54.84
46722;BME280;32455;43.430;23.136;2024-02-16T14:13:43;98853.38;;;10.97;54.52
46722;BME280;32455;43.430;23.136;2024-02-16T14:16:28;98851.88;;;11.08;54.22
46722;BME280;32455;43.430;23.136;2024-02-16T14:19:15;98860.59;;;10.90;54.19
46722;BME280;32455;43.430;23.136;2024-02-16T14:22:00;98857.91;;;10.77;55.33
46722;BME280;32455;43.430;23.136;2024-02-16T14:24:45;98855.22;;;10.70;54.92
46722;BME280;32455;43.430;23.136;2024-02-16T14:27:31;98852.97;;;10.67;55.21
46722;BME280;32455;43.430;23.136;2024-02-16T14:30:16;98851.31;;;10.80;54.40
46722;BME280;32455;43.430;23.136;2024-02-16T14:33:02;98853.78;;;10.88;54.71
46722;BME280;32455;43.430;23.136;2024-02-16T14:35:49;98849.66;;;10.72;55.91